Time;durP1;ratioP1;P1;durP2;ratioP2;P2;SDS_P1;SDS_P2;PMS_P1;PMS_P2;Temp;Humidity;BMP_temperature;BMP_pressure;BME280_temperature;BME280_humidity;BME280_pressure;Samples;Min_cycle;Max_cycle;Signal;HPM_P1;HPM_P2
2023/03/26 00:00:59;;;;;;;;;;;;;;;16.83;54.19;97988.22;5115557;28;19916;-80
2023/03/26 00:03:24;;;;;;;;;;;;;;;16.82;53.94;97976.84;5097555;28;19920;-80
2023/03/26 00:05:59;;;;;;;;;;;;;;;16.80;54.14;97984.09;5097381;28;20393;-80
2023/03/26 00:08:24;;;;;;;;;;;;;;;16.79;54.11;97992.19;5098560;28;19924;-80
2023/03/26 00:10:50;;;;;;;;;;;;;;;16.76;54.13;98001.28;5099870;28;19954;-81
2023/03/26 00:13:15;;;;;;;;;;;;;;;16.73;54.07;97998.16;5080484;28;19999;-81
2023/03/26 00:15:41;;;;;;;;;;;;;;;16.69;54.13;97994.25;5115449;28;19915;-81
2023/03/26 00:18:08;;;;;;;;;;;;;;;16.68;54.17;98003.13;5097771;28;20522;-81
2023/03/26 00:20:33;;;;;;;;;;;;;;;16.66;54.22;97998.03;5097313;28;20331;-80
2023/03/26 00:23:01;;;;;;;;;;;;;;;16.62;54.05;97996.75;5080395;28;19916;-80
2023/03/26 00:25:26;;;;;;;;;;;;;;;16.59;54.33;97994.47;5096864;28;19920;-80
2023/03/26 00:27:52;;;;;;;;;;;;;;;16.57;54.39;97991.16;5115245;28;19965;-81
2023/03/26 00:30:18;;;;;;;;;;;;;;;16.53;54.28;97984.63;5097029;28;19968;-81
2023/03/26 00:32:43;;;;;;;;;;;;;;;16.51;54.30;98000.59;5096822;28;19919;-81
2023/03/26 00:35:09;;;;;;;;;;;;;;;16.48;54.34;97994.84;5115097;28;19923;-81
2023/03/26 00:37:35;;;;;;;;;;;;;;;16.41;54.43;97995.53;5115106;28;19922;-81
2023/03/26 00:40:06;;;;;;;;;;;;;;;16.38;54.47;97995.88;5097067;28;19916;-81
2023/03/26 00:42:31;;;;;;;;;;;;;;;16.36;54.41;97995.22;5080512;28;19916;-81
2023/03/26 00:44:57;;;;;;;;;;;;;;;16.36;54.50;97991.78;5096757;28;19926;-81
2023/03/26 00:47:26;;;;;;;;;;;;;;;16.32;54.49;97996.56;5114898;28;19916;-81
2023/03/26 00:49:51;;;;;;;;;;;;;;;16.30;54.42;97995.09;5079780;28;20341;-81
2023/03/26 00:52:17;;;;;;;;;;;;;;;16.24;54.50;97994.78;5115135;28;19963;-81
2023/03/26 00:55:01;;;;;;;;;;;;;;;16.19;54.41;97981.34;5079767;28;20356;-81
2023/03/26 00:57:28;;;;;;;;;;;;;;;16.16;54.42;97976.41;5096561;28;19919;-81
2023/03/26 00:59:54;;;;;;;;;;;;;;;16.13;54.52;97973.28;5079625;28;19916;-81
2023/03/26 01:02:19;;;;;;;;;;;;;;;16.09;54.54;97989.41;5096662;28;20010;-81
2023/03/26 01:04:54;;;;;;;;;;;;;;;16.07;54.64;97987.97;5114287;28;19916;-81
2023/03/26 01:07:20;;;;;;;;;;;;;;;16.03;54.52;97987.44;5095556;28;19978;-81
2023/03/26 01:09:49;;;;;;;;;;;;;;;16.02;54.57;97992.88;5096687;28;19977;-81
2023/03/26 01:12:15;;;;;;;;;;;;;;;15.98;54.72;98002.94;5096807;28;20014;-80
2023/03/26 01:14:41;;;;;;;;;;;;;;;15.95;54.74;97995.38;5079558;28;20287;-80
2023/03/26 01:17:06;;;;;;;;;;;;;;;15.93;54.83;98002.63;5079214;28;19920;-80
2023/03/26 01:19:39;;;;;;;;;;;;;;;15.93;54.87;97997.38;5096051;28;19916;-81
2023/03/26 01:22:05;;;;;;;;;;;;;;;15.90;54.88;98002.97;5079434;28;20394;-80
2023/03/26 01:24:30;;;;;;;;;;;;;;;15.90;54.72;98003.78;5114211;28;19916;-82
2023/03/26 01:26:59;;;;;;;;;;;;;;;15.87;54.88;98011.22;5078922;28;19969;-81
2023/03/26 01:29:43;;;;;;;;;;;;;;;15.85;54.93;98007.94;5114504;28;19919;-81
2023/03/26 01:32:11;;;;;;;;;;;;;;;15.84;54.60;98006.28;5114039;28;19947;-80
2023/03/26 01:34:48;;;;;;;;;;;;;;;15.84;55.02;98014.19;5114530;28;19943;-81
2023/03/26 01:37:13;;;;;;;;;;;;;;;15.83;54.99;98013.38;5095722;28;20386;-81
2023/03/26 01:39:48;;;;;;;;;;;;;;;15.84;54.97;98017.63;5113724;28;19922;-81
2023/03/26 01:42:20;;;;;;;;;;;;;;;15.82;54.97;98010.91;5113906;28;20364;-81
2023/03/26 01:44:56;;;;;;;;;;;;;;;15.85;54.77;98013.19;5095859;28;19952;-81
2023/03/26 01:47:22;;;;;;;;;;;;;;;15.85;54.93;98018.47;5095651;28;19938;-81
2023/03/26 01:49:47;;;;;;;;;;;;;;;15.87;54.91;98008.56;5078706;28;20375;-81
2023/03/26 01:52:14;;;;;;;;;;;;;;;15.89;54.78;97999.53;5078505;28;19962;-82
2023/03/26 01:54:40;;;;;;;;;;;;;;;15.89;54.67;98010.06;5094808;28;19998;-80
2023/03/26 01:57:11;;;;;;;;;;;;;;;15.90;54.65;98002.97;5113535;28;19951;-80
2023/03/26 01:59:41;;;;;;;;;;;;;;;15.91;54.56;97996.72;5095561;28;19923;-81
2023/03/26 02:02:18;;;;;;;;;;;;;;;15.93;54.51;97988.66;5095522;28;19949;-81
2023/03/26 02:04:52;;;;;;;;;;;;;;;15.94;54.24;97979.75;5078563;28;19920;-80
2023/03/26 02:07:33;;;;;;;;;;;;;;;15.96;54.17;97983.88;5095671;28;19974;-81
2023/03/26 02:10:12;;;;;;;;;;;;;;;15.98;54.13;97981.88;5095754;28;20306;-81
2023/03/26 02:12:38;;;;;;;;;;;;;;;16.02;54.00;97983.19;5078202;28;20038;-81
2023/03/26 02:15:04;;;;;;;;;;;;;;;16.04;53.87;97996.19;5094331;28;19962;-81
2023/03/26 02:17:31;;;;;;;;;;;;;;;16.05;53.86;98003.06;5095310;28;20019;-81
2023/03/26 02:19:56;;;;;;;;;;;;;;;16.08;53.70;98029.06;5095468;28;19916;-81
2023/03/26 02:22:28;;;;;;;;;;;;;;;16.09;53.60;98057.03;5113226;28;19923;-81
2023/03/26 02:24:54;;;;;;;;;;;;;;;16.12;53.53;98050.63;5096280;28;19915;-79
2023/03/26 02:27:19;;;;;;;;;;;;;;;16.13;53.19;98032.03;5113074;28;19923;-81
2023/03/26 02:29:46;;;;;;;;;;;;;;;16.14;53.27;98051.28;5077981;28;19968;-80
2023/03/26 02:32:14;;;;;;;;;;;;;;;16.13;53.11;98041.72;5113350;28;19964;-80
2023/03/26 02:34:40;;;;;;;;;;;;;;;16.14;53.04;98041.56;5113315;28;19916;-81
2023/03/26 02:37:05;;;;;;;;;;;;;;;16.14;52.98;98044.19;5078619;28;20322;-81
2023/03/26 02:39:31;;;;;;;;;;;;;;;16.13;52.75;98047.00;5078200;28;19916;-81
2023/03/26 02:41:56;;;;;;;;;;;;;;;16.12;52.77;98051.44;5113005;28;20287;-80
2023/03/26 02:44:21;;;;;;;;;;;;;;;16.13;52.34;98052.25;5113240;28;19916;-81
2023/03/26 02:46:46;;;;;;;;;;;;;;;16.10;52.68;98051.63;5117112;28;19926;-80
2023/03/26 02:49:12;;;;;;;;;;;;;;;16.08;52.61;98058.03;5082202;28;19920;-80
2023/03/26 02:51:37;;;;;;;;;;;;;;;16.07;52.86;98062.47;5081686;28;20380;-80
2023/03/26 02:54:02;;;;;;;;;;;;;;;16.04;52.93;98060.19;5098694;28;19955;-81
2023/03/26 02:56:28;;;;;;;;;;;;;;;16.02;53.14;98058.69;5116865;28;20002;-80
2023/03/26 02:58:53;;;;;;;;;;;;;;;15.98;53.11;98058.22;5081934;28;20298;-80
2023/03/26 03:01:19;;;;;;;;;;;;;;;15.95;53.18;98069.09;5098957;28;19962;-80
2023/03/26 03:03:46;;;;;;;;;;;;;;;15.93;53.36;98057.09;5098606;28;19916;-80
2023/03/26 03:06:11;;;;;;;;;;;;;;;15.89;53.28;98062.69;5098723;28;19924;-80
2023/03/26 03:08:36;;;;;;;;;;;;;;;15.85;53.57;98060.56;5098742;28;19926;-81
2023/03/26 03:11:03;;;;;;;;;;;;;;;15.84;53.59;98061.53;5116753;28;19915;-80
2023/03/26 03:13:28;;;;;;;;;;;;;;;15.82;53.68;98074.06;5098521;28;19923;-80
2023/03/26 03:15:53;;;;;;;;;;;;;;;15.82;53.82;98074.06;5097878;28;19916;-81
2023/03/26 03:18:19;;;;;;;;;;;;;;;15.80;53.73;98076.84;5081124;28;19923;-80
2023/03/26 03:20:44;;;;;;;;;;;;;;;15.78;53.94;98064.84;5116514;28;19916;-80
2023/03/26 03:23:09;;;;;;;;;;;;;;;15.77;54.02;98068.47;5116432;28;20313;-80
2023/03/26 03:25:35;;;;;;;;;;;;;;;15.77;53.79;98065.84;5098177;28;20057;-80
2023/03/26 03:28:00;;;;;;;;;;;;;;;15.76;53.97;98066.78;5097497;28;20302;-80
2023/03/26 03:30:26;;;;;;;;;;;;;;;15.74;53.93;98073.03;5098056;28;19938;-80
2023/03/26 03:32:51;;;;;;;;;;;;;;;15.73;53.89;98073.19;5116427;28;19916;-80
2023/03/26 03:35:16;;;;;;;;;;;;;;;15.71;53.77;98064.66;5097937;28;20430;-80
2023/03/26 03:37:42;;;;;;;;;;;;;;;15.69;53.79;98064.81;5097926;28;19922;-80
2023/03/26 03:40:09;;;;;;;;;;;;;;;15.70;53.94;98065.63;5097926;28;20289;-81
2023/03/26 03:42:35;;;;;;;;;;;;;;;15.67;53.87;98058.91;5115921;28;19923;-80
2023/03/26 03:45:00;;;;;;;;;;;;;;;15.65;53.61;98063.50;5097523;28;20383;-75
2023/03/26 03:47:26;;;;;;;;;;;;;;;15.63;53.66;98062.84;5097869;28;19919;-77
2023/03/26 03:49:52;;;;;;;;;;;;;;;15.63;53.59;98062.03;5115723;28;20014;-77
2023/03/26 03:52:17;;;;;;;;;;;;;;;15.62;53.47;98068.28;5080474;28;19919;-78
2023/03/26 03:54:43;;;;;;;;;;;;;;;15.60;53.27;98065.00;5115831;28;20428;-78
2023/03/26 03:57:08;;;;;;;;;;;;;;;15.58;53.27;98073.06;5079782;28;19965;-78
2023/03/26 03:59:33;;;;;;;;;;;;;;;15.56;53.04;98069.78;5116116;28;19919;-77
2023/03/26 04:01:59;;;;;;;;;;;;;;;15.56;52.86;98081.13;5097481;28;20314;-77
2023/03/26 04:04:24;;;;;;;;;;;;;;;15.57;52.64;98081.94;5080157;28;20339;-77
2023/03/26 04:06:50;;;;;;;;;;;;;;;15.55;52.35;98091.78;5096874;28;19930;-77
2023/03/26 04:09:15;;;;;;;;;;;;;;;15.55;52.11;98086.53;5097456;28;19923;-78
2023/03/26 04:11:41;;;;;;;;;;;;;;;15.54;51.96;98083.09;5097279;28;19916;-78
2023/03/26 04:14:06;;;;;;;;;;;;;;;15.53;51.82;98080.63;5097253;28;19919;-79
2023/03/26 04:16:31;;;;;;;;;;;;;;;15.53;51.47;98084.06;5080164;28;20002;-78
2023/03/26 04:18:57;;;;;;;;;;;;;;;15.51;51.23;98088.69;5097397;28;19926;-78
2023/03/26 04:21:23;;;;;;;;;;;;;;;15.51;50.95;98093.09;5080407;28;19920;-78
2023/03/26 04:23:48;;;;;;;;;;;;;;;15.51;50.88;98095.72;5115718;28;20416;-77
2023/03/26 04:26:15;;;;;;;;;;;;;;;15.52;50.57;98092.13;5115270;28;19938;-78
2023/03/26 04:28:52;;;;;;;;;;;;;;;15.53;50.49;98094.59;5115170;28;19919;-77
2023/03/26 04:31:22;;;;;;;;;;;;;;;15.52;50.08;98098.19;5115240;28;20416;-77
2023/03/26 04:33:48;;;;;;;;;;;;;;;15.55;49.97;98113.66;5079921;28;20299;-77
2023/03/26 04:36:14;;;;;;;;;;;;;;;15.55;49.63;98112.84;5095998;28;19916;-77
2023/03/26 04:38:41;;;;;;;;;;;;;;;15.55;49.37;98111.03;5096901;28;19915;-76
2023/03/26 04:41:06;;;;;;;;;;;;;;;15.55;49.91;98116.28;5096353;28;20363;-74
2023/03/26 04:43:34;;;;;;;;;;;;;;;15.61;51.16;98124.50;5114578;28;19920;-77
2023/03/26 04:46:02;;;;;;;;;;;;;;;15.64;50.59;98116.28;5097049;28;20351;-77
2023/03/26 04:48:27;;;;;;;;;;;;;;;15.64;50.03;98113.66;5078435;28;19919;-77
2023/03/26 04:50:52;;;;;;;;;;;;;;;15.66;49.69;98111.69;5094806;28;20422;-77
2023/03/26 04:53:18;;;;;;;;;;;;;;;15.69;49.34;98111.38;5087823;28;19920;-77
2023/03/26 04:55:52;;;;;;;;;;;;;;;15.72;48.89;98122.38;5086950;28;19916;-77
2023/03/26 04:58:17;;;;;;;;;;;;;;;15.79;48.45;98117.31;5096183;28;20435;-77
2023/03/26 05:00:43;;;;;;;;;;;;;;;15.85;48.08;98114.00;5114043;28;20023;-76
2023/03/26 05:03:12;;;;;;;;;;;;;;;15.93;47.71;98115.81;5095761;28;20012;-77
2023/03/26 05:05:37;;;;;;;;;;;;;;;16.02;47.41;98116.59;5075382;28;19932;-77
2023/03/26 05:08:02;;;;;;;;;;;;;;;16.15;47.12;98116.13;5074392;28;20299;-77
2023/03/26 05:10:28;;;;;;;;;;;;;;;16.35;46.62;98125.28;5076224;28;19923;-78
2023/03/26 05:12:53;;;;;;;;;;;;;;;16.46;46.10;98135.47;5093809;28;20295;-77
2023/03/26 05:15:18;;;;;;;;;;;;;;;16.90;45.03;98135.97;5094219;28;19927;-77
2023/03/26 05:17:45;;;;;;;;;;;;;;;16.97;44.87;98142.22;5075585;28;19919;-77
2023/03/26 05:20:19;;;;;;;;;;;;;;;16.98;44.71;98142.03;5075924;28;20351;-77
2023/03/26 05:22:45;;;;;;;;;;;;;;;17.02;44.66;98144.34;5059698;28;20387;-76
2023/03/26 05:25:10;;;;;;;;;;;;;;;17.04;44.37;98148.41;5058901;28;20009;-76
2023/03/26 05:27:35;;;;;;;;;;;;;;;17.09;44.20;98151.34;5075732;28;20006;-76
2023/03/26 05:30:01;;;;;;;;;;;;;;;17.76;43.10;98157.03;5074613;28;19942;-76
2023/03/26 05:32:26;;;;;;;;;;;;;;;19.55;39.42;98164.97;5076710;28;19916;-76
2023/03/26 05:34:52;;;;;;;;;;;;;;;20.74;37.07;98167.75;5078824;28;20390;-77
2023/03/26 05:37:19;;;;;;;;;;;;;;;21.78;35.00;98165.84;5094935;28;19920;-77
2023/03/26 05:39:44;;;;;;;;;;;;;;;22.76;33.42;98165.13;5096342;28;19916;-77
2023/03/26 05:42:10;;;;;;;;;;;;;;;23.68;31.58;98182.75;5095687;28;19922;-77
2023/03/26 05:44:35;;;;;;;;;;;;;;;24.53;29.82;98186.81;5080440;28;19916;-77
2023/03/26 05:47:01;;;;;;;;;;;;;;;25.23;29.01;98172.25;5075352;28;19916;-77
2023/03/26 05:49:26;;;;;;;;;;;;;;;24.75;29.19;98181.88;5075076;28;19916;-77
2023/03/26 05:51:51;;;;;;;;;;;;;;;24.00;29.46;98188.91;5075823;28;19916;-76
2023/03/26 05:54:17;;;;;;;;;;;;;;;23.53;29.39;98177.72;5074325;28;20399;-75
2023/03/26 05:56:42;;;;;;;;;;;;;;;23.07;30.28;98173.41;5075074;28;20303;-76
2023/03/26 05:59:07;;;;;;;;;;;;;;;22.64;30.78;98181.97;5074077;28;19919;-77
2023/03/26 06:01:32;;;;;;;;;;;;;;;22.43;30.90;98177.72;5074929;28;20019;-77
2023/03/26 06:03:58;;;;;;;;;;;;;;;23.29;29.95;98173.94;5074976;28;19916;-75
2023/03/26 06:06:23;;;;;;;;;;;;;;;24.12;28.83;98189.00;5074020;28;19924;-76
2023/03/26 06:08:49;;;;;;;;;;;;;;;24.90;27.30;98170.81;5075106;28;19916;-76
2023/03/26 06:11:15;;;;;;;;;;;;;;;25.61;26.43;98169.28;5058196;28;19922;-78
2023/03/26 06:13:40;;;;;;;;;;;;;;;26.23;26.01;98164.63;5102406;28;19920;-77
2023/03/26 06:16:06;;;;;;;;;;;;;;;26.85;24.68;98170.31;5095337;28;19916;-77
2023/03/26 06:18:31;;;;;;;;;;;;;;;27.42;23.87;98171.41;5095086;28;19916;-76
2023/03/26 06:20:57;;;;;;;;;;;;;;;27.92;23.41;98170.66;5095229;28;19927;-75
2023/03/26 06:23:22;;;;;;;;;;;;;;;28.40;23.06;98186.44;5078141;28;19923;-76
2023/03/26 06:25:48;;;;;;;;;;;;;;;28.86;22.34;98184.38;5095293;28;20306;-81
2023/03/26 06:28:13;;;;;;;;;;;;;;;29.30;21.74;98184.38;5077937;28;19915;-82
2023/03/26 06:30:39;;;;;;;;;;;;;;;29.68;21.60;98179.94;5079001;28;19920;-80
2023/03/26 06:33:04;;;;;;;;;;;;;;;30.04;20.67;98180.25;5078298;28;19923;-84
2023/03/26 06:35:30;;;;;;;;;;;;;;;30.14;21.10;98182.19;5113092;28;19922;-74
2023/03/26 06:37:55;;;;;;;;;;;;;;;29.93;20.86;98175.84;5115060;28;19923;-70
2023/03/26 06:40:20;;;;;;;;;;;;;;;29.66;21.30;98192.81;5078135;28;20349;-69
2023/03/26 06:42:46;;;;;;;;;;;;;;;29.46;21.47;98198.81;5078240;28;20371;-68
2023/03/26 06:45:11;;;;;;;;;;;;;;;29.35;21.91;98184.47;5112910;28;20375;-68
2023/03/26 06:47:36;;;;;;;;;;;;;;;29.29;21.14;98190.00;5094723;28;19920;-69
2023/03/26 06:50:02;;;;;;;;;;;;;;;29.25;21.47;98197.78;5077685;28;19923;-68
2023/03/26 06:52:27;;;;;;;;;;;;;;;29.13;21.12;98199.75;5094439;28;19916;-69
2023/03/26 06:54:52;;;;;;;;;;;;;;;29.17;20.69;98199.00;5112823;28;20303;-69
2023/03/26 06:57:18;;;;;;;;;;;;;;;29.15;21.28;98192.28;5094505;28;20287;-68
2023/03/26 06:59:43;;;;;;;;;;;;;;;29.16;21.62;98205.44;5113028;28;20299;-68
2023/03/26 07:02:09;;;;;;;;;;;;;;;29.18;20.25;98202.53;5112684;28;19923;-67
2023/03/26 07:04:35;;;;;;;;;;;;;;;29.23;21.65;98200.72;5094532;28;20004;-71
2023/03/26 07:07:00;;;;;;;;;;;;;;;29.27;22.00;98205.59;5112872;28;19967;-72
2023/03/26 07:09:29;;;;;;;;;;;;;;;29.32;20.87;98211.00;5094864;28;20279;-73
2023/03/26 07:11:54;;;;;;;;;;;;;;;29.39;20.35;98217.81;5112732;28;19973;-64
2023/03/26 07:14:19;;;;;;;;;;;;;;;29.49;19.81;98216.31;5112470;28;19919;-65
2023/03/26 07:16:45;;;;;;;;;;;;;;;29.64;20.55;98224.53;5112634;28;19988;-65
2023/03/26 07:19:10;;;;;;;;;;;;;;;29.75;20.96;98218.19;5112452;28;19922;-65
2023/03/26 07:21:35;;;;;;;;;;;;;;;30.01;19.36;98204.19;5094510;28;19916;-66
2023/03/26 07:24:01;;;;;;;;;;;;;;;30.23;19.22;98210.25;5112550;28;20367;-67
2023/03/26 07:26:32;;;;;;;;;;;;;;;30.95;18.58;98220.69;5077079;28;19916;-68
2023/03/26 07:29:09;;;;;;;;;;;;;;;31.66;17.00;98208.53;5094382;28;20053;-66
2023/03/26 07:31:37;;;;;;;;;;;;;;;32.93;15.78;98214.94;5096531;28;19927;-66
2023/03/26 07:34:22;;;;;;;;;;;;;;;34.14;14.81;98222.88;5080706;28;20356;-67
2023/03/26 07:36:52;;;;;;;;;;;;;;;35.40;13.94;98231.06;5101200;28;19920;-65
2023/03/26 07:39:36;;;;;;;;;;;;;;;35.64;12.70;98223.63;5080677;28;19919;-66
2023/03/26 07:42:21;;;;;;;;;;;;;;;36.31;12.56;98224.53;5115412;28;19916;-66
2023/03/26 07:44:46;;;;;;;;;;;;;;;36.47;13.49;98220.44;5080398;28;19976;-68
2023/03/26 07:47:24;;;;;;;;;;;;;;;36.18;12.97;98216.03;5087162;28;20066;-66
2023/03/26 07:49:50;;;;;;;;;;;;;;;35.87;13.05;98213.03;5077825;28;19916;-68
2023/03/26 07:52:16;;;;;;;;;;;;;;;35.21;13.26;98218.25;5077334;28;20341;-68
2023/03/26 07:54:41;;;;;;;;;;;;;;;34.29;13.95;98213.88;5098593;28;19943;-67
2023/03/26 07:57:18;;;;;;;;;;;;;;;33.80;14.99;98210.19;5080499;28;20006;-67
2023/03/26 07:59:51;;;;;;;;;;;;;;;33.50;14.61;98209.28;5080301;28;19915;-67
2023/03/26 08:02:22;;;;;;;;;;;;;;;32.81;15.70;98215.25;5097551;28;20069;-66
2023/03/26 08:05:00;;;;;;;;;;;;;;;32.91;15.39;98213.56;5115504;28;19920;-66
2023/03/26 08:07:25;;;;;;;;;;;;;;;33.01;15.55;98208.13;5096932;28;19936;-67
2023/03/26 08:10:02;;;;;;;;;;;;;;;33.04;14.94;98217.59;5096937;28;19965;-67
2023/03/26 08:12:30;;;;;;;;;;;;;;;32.96;14.79;98208.97;5115480;28;19920;-67
2023/03/26 08:15:06;;;;;;;;;;;;;;;32.81;15.50;98214.44;5096766;28;19972;-67
2023/03/26 08:17:41;;;;;;;;;;;;;;;32.79;14.89;98217.41;5080268;28;19923;-66
2023/03/26 08:20:12;;;;;;;;;;;;;;;32.88;15.55;98212.25;5096900;28;19927;-67
2023/03/26 08:22:40;;;;;;;;;;;;;;;32.85;16.28;98223.63;5115517;28;19927;-67
2023/03/26 08:25:05;;;;;;;;;;;;;;;32.70;14.99;98207.44;5080325;28;19968;-66
2023/03/26 08:27:50;;;;;;;;;;;;;;;32.10;16.00;98202.66;5096469;28;19998;-65
2023/03/26 08:30:19;;;;;;;;;;;;;;;32.00;15.25;98205.31;5062181;28;21345;-74
2023/03/26 08:32:48;;;;;;;;;;;;;;;32.42;18.40;98207.75;5073685;28;20026;-73
2023/03/26 08:35:13;;;;;;;;;;;;;;;32.76;18.98;98212.53;5084621;28;19945;-71
2023/03/26 08:37:38;;;;;;;;;;;;;;;33.06;18.80;98200.00;5096478;28;19916;-72
2023/03/26 08:40:08;;;;;;;;;;;;;;;33.21;19.18;98195.63;5097441;28;19969;-72
2023/03/26 08:42:33;;;;;;;;;;;;;;;33.39;19.01;98192.28;5088714;28;20439;-71
2023/03/26 08:45:17;;;;;;;;;;;;;;;33.57;19.20;98193.50;5094254;28;19920;-72
2023/03/26 08:47:42;;;;;;;;;;;;;;;33.54;19.59;98194.06;5114084;28;19927;-71
2023/03/26 08:50:17;;;;;;;;;;;;;;;33.73;19.19;98196.94;5114650;28;19915;-71
2023/03/26 08:52:42;;;;;;;;;;;;;;;33.99;18.95;98194.06;5114636;28;19922;-69
2023/03/26 08:55:16;;;;;;;;;;;;;;;33.51;20.06;98181.94;5096162;28;19919;-68
2023/03/26 08:57:54;;;;;;;;;;;;;;;33.77;19.66;98202.63;5114529;28;19939;-68
2023/03/26 09:00:38;;;;;;;;;;;;;;;33.96;19.84;98200.84;5096350;28;20420;-67
2023/03/26 09:03:16;;;;;;;;;;;;;;;34.12;18.89;98198.00;5096178;28;20276;-68
2023/03/26 09:05:47;;;;;;;;;;;;;;;34.10;18.28;98192.88;5096360;28;19920;-67
2023/03/26 09:08:12;;;;;;;;;;;;;;;34.13;18.29;98192.31;5095816;28;20023;-68
2023/03/26 09:10:56;;;;;;;;;;;;;;;34.14;18.86;98184.97;5114286;28;19971;-69
2023/03/26 09:13:36;;;;;;;;;;;;;;;34.08;19.08;98184.22;5114000;28;19916;-68
2023/03/26 09:16:09;;;;;;;;;;;;;;;34.12;19.23;98184.47;5113814;28;19920;-70
2023/03/26 09:18:44;;;;;;;;;;;;;;;34.06;18.62;98189.09;5096188;28;19916;-71
2023/03/26 09:21:28;;;;;;;;;;;;;;;34.10;19.83;98198.28;5113844;28;19973;-72
2023/03/26 09:24:06;;;;;;;;;;;;;;;33.51;14.03;98200.03;5113766;28;19939;-67
2023/03/26 09:26:50;;;;;;;;;;;;;;;33.44;13.03;98186.03;5096342;28;19931;-66
2023/03/26 09:29:27;;;;;;;;;;;;;;;33.30;14.46;98202.06;5095579;28;19916;-67
2023/03/26 09:31:56;;;;;;;;;;;;;;;33.10;16.73;98208.34;5095488;28;19923;-67
2023/03/26 09:34:35;;;;;;;;;;;;;;;32.51;14.01;98205.28;5095486;28;19916;-68
2023/03/26 09:37:17;;;;;;;;;;;;;;;32.35;15.26;98204.50;5078536;28;19915;-66
2023/03/26 09:39:55;;;;;;;;;;;;;;;31.90;13.43;98198.03;5078610;28;19959;-68
2023/03/26 09:42:28;;;;;;;;;;;;;;;31.87;14.77;98207.47;5113696;28;19972;-66
2023/03/26 09:45:03;;;;;;;;;;;;;;;31.69;14.86;98189.13;5078594;28;19915;-68
2023/03/26 09:47:35;;;;;;;;;;;;;;;31.20;13.85;98220.81;5095630;28;19958;-68
2023/03/26 09:50:20;;;;;;;;;;;;;;;31.17;13.99;98215.16;5095326;28;20003;-66
2023/03/26 09:52:45;;;;;;;;;;;;;;;30.95;14.25;98210.72;5095341;28;19916;-68
2023/03/26 09:55:28;;;;;;;;;;;;;;;30.83;13.32;98200.13;5113049;28;20276;-67
2023/03/26 09:58:03;;;;;;;;;;;;;;;30.51;14.31;98202.94;5095184;28;19922;-68
2023/03/26 10:00:40;;;;;;;;;;;;;;;30.40;14.70;98195.88;5078103;28;19923;-68
2023/03/26 10:03:24;;;;;;;;;;;;;;;30.37;14.53;98204.44;5078057;28;19972;-68
2023/03/26 10:06:13;;;;;;;;;;;;;;;30.25;14.06;98199.25;5094333;28;19923;-69
2023/03/26 10:08:43;;;;;;;;;;;;;;;30.15;15.00;98188.41;4988086;28;20392;-69
2023/03/26 10:11:20;;;;;;;;;;;;;;;29.95;14.60;98201.44;4979356;28;19922;-68
2023/03/26 10:13:51;;;;;;;;;;;;;;;29.88;14.72;98190.06;4975149;28;19918;-68
2023/03/26 10:16:25;;;;;;;;;;;;;;;29.76;14.82;98173.25;4990959;28;19925;-68
2023/03/26 10:19:09;;;;;;;;;;;;;;;29.54;15.30;98189.47;4959278;28;19967;-67
2023/03/26 10:21:34;;;;;;;;;;;;;;;29.17;14.90;98176.69;4991179;28;20020;-68
2023/03/26 10:24:03;;;;;;;;;;;;;;;29.12;14.22;98179.34;4991272;28;20394;-68
2023/03/26 10:26:35;;;;;;;;;;;;;;;29.01;14.17;98175.72;4958680;28;19949;-68
2023/03/26 10:29:19;;;;;;;;;;;;;;;28.84;14.33;98184.66;4991187;28;19952;-70
2023/03/26 10:31:47;;;;;;;;;;;;;;;28.79;14.83;98183.78;5020234;28;20312;-69
2023/03/26 10:34:19;;;;;;;;;;;;;;;28.67;15.04;98183.88;5009421;28;20025;-75
2023/03/26 10:36:59;;;;;;;;;;;;;;;28.47;15.36;98181.72;5029454;28;20418;-70
2023/03/26 10:39:42;;;;;;;;;;;;;;;28.41;15.03;98172.75;5028327;28;20404;-69
2023/03/26 10:42:15;;;;;;;;;;;;;;;28.29;15.03;98164.81;5029500;28;19972;-69
2023/03/26 10:45:03;;;;;;;;;;;;;;;28.14;15.20;98172.63;5021631;28;19917;-69
2023/03/26 10:47:40;;;;;;;;;;;;;;;27.98;15.45;98166.22;5048782;28;19964;-69
2023/03/26 10:50:24;;;;;;;;;;;;;;;27.80;16.17;98160.00;5047651;28;19929;-67
2023/03/26 10:52:58;;;;;;;;;;;;;;;27.77;15.18;98160.50;5029223;28;20055;-68
2023/03/26 10:55:45;;;;;;;;;;;;;;;27.63;16.39;98164.56;5012345;28;19921;-70
2023/03/26 10:58:10;;;;;;;;;;;;;;;27.59;16.59;98166.06;5028646;28;19924;-69
2023/03/26 11:00:37;;;;;;;;;;;;;;;27.52;15.92;98160.88;5028718;28;19928;-69
2023/03/26 11:03:09;;;;;;;;;;;;;;;27.44;15.70;98154.03;5013069;28;19917;-67
2023/03/26 11:05:52;;;;;;;;;;;;;;;27.35;16.67;98162.72;5029581;28;20000;-68
2023/03/26 11:08:20;;;;;;;;;;;;;;;27.21;17.20;98156.78;5016321;28;20382;-68
2023/03/26 11:10:52;;;;;;;;;;;;;;;27.07;17.80;98145.53;5032576;28;19932;-74
2023/03/26 11:13:35;;;;;;;;;;;;;;;27.12;17.91;98139.47;5016231;28;19940;-73
2023/03/26 11:16:05;;;;;;;;;;;;;;;27.21;18.06;98130.81;5027280;28;20375;-78
2023/03/26 11:18:35;;;;;;;;;;;;;;;27.30;18.43;98144.63;4981432;28;19924;-79
2023/03/26 11:21:03;;;;;;;;;;;;;;;27.37;18.49;98141.84;5014083;28;20400;-76
2023/03/26 11:23:47;;;;;;;;;;;;;;;27.39;18.57;98134.34;5004294;28;19921;-73
2023/03/26 11:26:12;;;;;;;;;;;;;;;27.43;18.78;98130.97;5077116;28;19923;-74
2023/03/26 11:28:40;;;;;;;;;;;;;;;27.45;18.99;98136.06;5112692;28;20309;-74
2023/03/26 11:31:24;;;;;;;;;;;;;;;27.40;19.82;98138.69;5114754;28;19963;-73
2023/03/26 11:33:51;;;;;;;;;;;;;;;27.35;19.73;98126.00;5097379;28;19923;-72
2023/03/26 11:36:17;;;;;;;;;;;;;;;27.31;19.23;98132.06;5081349;28;19916;-73
2023/03/26 11:38:43;;;;;;;;;;;;;;;27.22;19.47;98134.31;5116112;28;20016;-72
2023/03/26 11:41:13;;;;;;;;;;;;;;;27.15;19.41;98130.97;5097799;28;20018;-72
2023/03/26 11:43:39;;;;;;;;;;;;;;;27.04;19.35;98119.22;5097597;28;19968;-72
2023/03/26 11:46:09;;;;;;;;;;;;;;;26.97;19.42;98119.38;5098013;28;19972;-72
2023/03/26 11:48:41;;;;;;;;;;;;;;;26.88;19.26;98118.97;5098280;28;19957;-73
2023/03/26 11:51:11;;;;;;;;;;;;;;;26.77;19.17;98108.28;5097851;28;19916;-73
2023/03/26 11:53:45;;;;;;;;;;;;;;;26.66;19.31;98105.41;5098082;28;19916;-71
2023/03/26 11:56:20;;;;;;;;;;;;;;;26.53;19.88;98105.63;5098559;28;19920;-73
2023/03/26 11:58:55;;;;;;;;;;;;;;;26.43;19.51;98098.19;5097417;28;19923;-73
2023/03/26 12:01:28;;;;;;;;;;;;;;;26.29;20.10;98092.28;5115737;28;19916;-72
2023/03/26 12:03:57;;;;;;;;;;;;;;;26.19;19.66;98081.38;5096979;28;19916;-72
2023/03/26 12:06:27;;;;;;;;;;;;;;;26.11;19.83;98079.06;5096925;28;20520;-71
2023/03/26 12:08:53;;;;;;;;;;;;;;;26.00;20.00;98075.34;5115510;28;19919;-70
2023/03/26 12:11:18;;;;;;;;;;;;;;;25.95;19.89;98077.84;5080268;28;19922;-71
2023/03/26 12:13:44;;;;;;;;;;;;;;;25.90;19.92;98069.72;5097308;28;19923;-71
2023/03/26 12:16:09;;;;;;;;;;;;;;;25.83;20.41;98064.50;5080103;28;19916;-71
2023/03/26 12:18:35;;;;;;;;;;;;;;;25.74;20.33;98072.03;5097179;28;19916;-72
2023/03/26 12:21:04;;;;;;;;;;;;;;;25.64;20.44;98072.59;5096499;28;19922;-70
2023/03/26 12:23:34;;;;;;;;;;;;;;;25.60;20.60;98079.47;5079951;28;19969;-69
2023/03/26 12:26:19;;;;;;;;;;;;;;;25.55;20.69;98073.19;5079751;28;20015;-70
2023/03/26 12:28:46;;;;;;;;;;;;;;;25.50;20.49;98073.06;5114567;28;19915;-71
2023/03/26 12:31:16;;;;;;;;;;;;;;;25.45;20.63;98074.56;5079729;28;19974;-72
2023/03/26 12:33:43;;;;;;;;;;;;;;;25.41;20.65;98069.91;5076911;28;20433;-73
2023/03/26 12:36:35;;;;;;;;;;;;;;;25.34;20.68;98067.34;5094434;28;19923;-72
2023/03/26 12:39:01;;;;;;;;;;;;;;;25.33;20.62;98059.56;5071773;28;19939;-71
2023/03/26 12:41:36;;;;;;;;;;;;;;;25.32;20.86;98055.25;5076762;28;20383;-73
2023/03/26 12:44:17;;;;;;;;;;;;;;;25.27;21.07;98058.59;5076348;28;20371;-71
2023/03/26 12:46:44;;;;;;;;;;;;;;;25.23;20.68;98054.75;5094655;28;20394;-72
2023/03/26 12:49:10;;;;;;;;;;;;;;;25.22;20.54;98055.78;5076381;28;19916;-70
2023/03/26 12:51:39;;;;;;;;;;;;;;;25.18;20.48;98039.41;5075777;28;19916;-71
2023/03/26 12:54:27;;;;;;;;;;;;;;;25.10;19.79;98035.19;5093807;28;19916;-71
2023/03/26 12:57:09;;;;;;;;;;;;;;;24.97;20.06;98040.75;5059545;28;20345;-72
2023/03/26 12:59:41;;;;;;;;;;;;;;;24.94;20.15;98043.88;5076032;28;19928;-72